Tapachula International Airport
MMTP : rendu visible

Aérodrome :











RETROUVEZ-NOUS SUR...

 
LOGIN :

S'inscrire | Disclaimer

   EN    FR    IT 

 









Légende :    VFR   VFR Marginal   IFR   IFR Intensif   IFR Très Intensif
Visi : 
Plafond : 
>= 8 km
>= 3000ft
5 à 8 km
1000 à 3000 ft
1500m à 5 km
500 à 1000 ft
800 à 1500m
200 à 500 ft
< 800m
< 200 ft
Symboles :   Orages  Brouillard  Fortes neiges  Fortes précipitations  Vent > 20 kt






- Altitude de l'aérodrome : 97 ft
- Code IATA : TAP


MMTP - Tapachula International

DERNIER METAR :
  • 121742Z 02002KT 10SM SKC 33/21 A2991 RMK SLP151 57012 952 HZY DSNT CU N

METARs EXPIRÉS :
  • 121640Z 00000KT 10SM SKC 33/21 A2993 RMK HZY
  • 121540Z 35002KT 10SM SKC 31/21 A2995 RMK HZY BR

TAF TAF MMTP
Valide du 12 à 18h jusqu'au 14 à 00h UTC


121659Z 1218/1324 24010KT P6SM SKC
FM130300 00000KT P6SM SKC



MET'MAP, la Météo Aéronautique d'un coup d'oeil ! - Copyright ORBIFLY Décembre 2007 - Disclaimer

ORBIFLY MET'MAP TEAM :

Programmation & Développement : Alexandra Zaïnal
Sur une idée originale de : Baudouin d'Aumeries
Assistance à la programmation : Marc-Olivier Méhu
Soutien technique & logistique : Manuel Goepfert

Contact : metmap@orbifly.com




SOURCES & CREDITS :

   NOAA       Earth
Advisory